sensor_id;sensor_type;location;lat;lon;timestamp;pressure;altitude;pressure_sealevel;temperature;humidity
71126;BME280;58785;55.566;38.058;2023-08-07T00:01:48;100303.75;;;21.45;81.02
71126;BME280;58785;55.566;38.058;2023-08-07T00:04:14;100302.06;;;21.44;80.94
71126;BME280;58785;55.566;38.058;2023-08-07T00:06:39;100306.47;;;21.45;81.12
71126;BME280;58785;55.566;38.058;2023-08-07T00:09:05;100295.84;;;21.37;81.28
71126;BME280;58785;55.566;38.058;2023-08-07T00:11:31;100300.00;;;21.39;81.28
71126;BME280;58785;55.566;38.058;2023-08-07T00:13:57;100300.22;;;21.38;81.06
71126;BME280;58785;55.566;38.058;2023-08-07T00:16:23;100307.53;;;21.37;80.95
71126;BME280;58785;55.566;38.058;2023-08-07T00:18:49;100306.69;;;21.37;81.19
71126;BME280;58785;55.566;38.058;2023-08-07T00:21:15;100291.25;;;21.31;81.08
71126;BME280;58785;55.566;38.058;2023-08-07T00:23:40;100294.38;;;21.34;80.99
71126;BME280;58785;55.566;38.058;2023-08-07T00:26:06;100307.31;;;21.32;80.98
71126;BME280;58785;55.566;38.058;2023-08-07T00:28:32;100308.38;;;21.31;81.03
71126;BME280;58785;55.566;38.058;2023-08-07T00:30:57;100300.41;;;21.23;81.11
71126;BME280;58785;55.566;38.058;2023-08-07T00:33:23;100305.47;;;21.26;81.21
71126;BME280;58785;55.566;38.058;2023-08-07T00:35:48;100304.78;;;21.24;81.12
71126;BME280;58785;55.566;38.058;2023-08-07T00:38:14;100305.22;;;21.21;81.03
71126;BME280;58785;55.566;38.058;2023-08-07T00:40:41;100309.81;;;21.20;81.49
71126;BME280;58785;55.566;38.058;2023-08-07T00:43:07;100311.91;;;21.18;81.35
71126;BME280;58785;55.566;38.058;2023-08-07T00:45:43;100304.00;;;21.10;81.34
71126;BME280;58785;55.566;38.058;2023-08-07T00:48:11;100299.63;;;21.09;81.43
71126;BME280;58785;55.566;38.058;2023-08-07T00:50:39;100295.25;;;21.08;81.46
71126;BME280;58785;55.566;38.058;2023-08-07T00:53:06;100296.31;;;21.07;81.43
71126;BME280;58785;55.566;38.058;2023-08-07T00:55:32;100294.00;;;21.04;81.77
71126;BME280;58785;55.566;38.058;2023-08-07T00:57:58;100291.09;;;21.06;81.47
71126;BME280;58785;55.566;38.058;2023-08-07T01:00:27;100290.66;;;21.02;81.59
71126;BME280;58785;55.566;38.058;2023-08-07T01:02:55;100280.91;;;20.94;81.45
71126;BME280;58785;55.566;38.058;2023-08-07T01:05:24;100283.59;;;20.94;81.65
71126;BME280;58785;55.566;38.058;2023-08-07T01:07:50;100279.41;;;20.92;81.65
71126;BME280;58785;55.566;38.058;2023-08-07T01:13:14;100281.28;;;20.91;81.74
71126;BME280;58785;55.566;38.058;2023-08-07T01:15:41;100276.91;;;20.90;81.66
71126;BME280;58785;55.566;38.058;2023-08-07T01:18:07;100280.28;;;20.86;81.78
71126;BME280;58785;55.566;38.058;2023-08-07T01:20:33;100277.78;;;20.84;82.03
71126;BME280;58785;55.566;38.058;2023-08-07T01:23:00;100282.56;;;20.82;82.10
71126;BME280;58785;55.566;38.058;2023-08-07T01:25:25;100285.47;;;20.81;81.84
71126;BME280;58785;55.566;38.058;2023-08-07T01:28:17;100276.50;;;20.80;82.10
71126;BME280;58785;55.566;38.058;2023-08-07T01:30:49;100276.94;;;20.77;82.11
71126;BME280;58785;55.566;38.058;2023-08-07T01:33:24;100276.50;;;20.74;82.18
71126;BME280;58785;55.566;38.058;2023-08-07T01:35:54;100279.88;;;20.76;82.18
71126;BME280;58785;55.566;38.058;2023-08-07T01:38:24;100266.31;;;20.69;82.19
71126;BME280;58785;55.566;38.058;2023-08-07T01:40:51;100275.06;;;20.71;81.98
71126;BME280;58785;55.566;38.058;2023-08-07T01:43:18;100274.66;;;20.67;82.15
71126;BME280;58785;55.566;38.058;2023-08-07T01:45:44;100265.06;;;20.65;82.21
71126;BME280;58785;55.566;38.058;2023-08-07T01:48:10;100268.63;;;20.65;82.00
71126;BME280;58785;55.566;38.058;2023-08-07T01:50:38;100265.06;;;20.65;82.26
71126;BME280;58785;55.566;38.058;2023-08-07T01:53:05;100271.94;;;20.67;82.09
71126;BME280;58785;55.566;38.058;2023-08-07T01:55:31;100273.63;;;20.69;82.02
71126;BME280;58785;55.566;38.058;2023-08-07T01:57:57;100272.78;;;20.68;82.00
71126;BME280;58785;55.566;38.058;2023-08-07T02:00:23;100270.69;;;20.70;81.88
71126;BME280;58785;55.566;38.058;2023-08-07T02:02:48;100271.31;;;20.72;81.86
71126;BME280;58785;55.566;38.058;2023-08-07T02:05:14;100267.38;;;20.75;81.78
71126;BME280;58785;55.566;38.058;2023-08-07T02:07:41;100263.78;;;20.74;81.86
71126;BME280;58785;55.566;38.058;2023-08-07T02:10:16;100264.44;;;20.76;81.77
71126;BME280;58785;55.566;38.058;2023-08-07T02:12:42;100257.13;;;20.77;81.51
71126;BME280;58785;55.566;38.058;2023-08-07T02:15:08;100270.66;;;20.83;81.49
71126;BME280;58785;55.566;38.058;2023-08-07T02:17:35;100272.16;;;20.86;81.34
71126;BME280;58785;55.566;38.058;2023-08-07T02:20:05;100268.38;;;20.87;81.25
71126;BME280;58785;55.566;38.058;2023-08-07T02:22:31;100271.50;;;20.90;81.57
71126;BME280;58785;55.566;38.058;2023-08-07T02:24:57;100273.16;;;20.91;81.01
71126;BME280;58785;55.566;38.058;2023-08-07T02:27:23;100271.72;;;20.95;81.06
71126;BME280;58785;55.566;38.058;2023-08-07T02:29:50;100272.94;;;21.00;81.09
71126;BME280;58785;55.566;38.058;2023-08-07T02:32:19;100266.03;;;21.04;80.92
71126;BME280;58785;55.566;38.058;2023-08-07T02:34:45;100265.63;;;21.07;80.77
71126;BME280;58785;55.566;38.058;2023-08-07T02:37:11;100262.06;;;21.13;80.61
71126;BME280;58785;55.566;38.058;2023-08-07T02:39:37;100265.19;;;21.16;80.53
71126;BME280;58785;55.566;38.058;2023-08-07T02:42:03;100258.06;;;21.22;80.20
71126;BME280;58785;55.566;38.058;2023-08-07T02:44:29;100261.31;;;21.57;79.58
71126;BME280;58785;55.566;38.058;2023-08-07T02:46:55;100244.97;;;21.70;79.35
71126;BME280;58785;55.566;38.058;2023-08-07T02:51:47;100259.19;;;22.11;78.05
71126;BME280;58785;55.566;38.058;2023-08-07T02:54:13;100261.53;;;22.32;78.16
71126;BME280;58785;55.566;38.058;2023-08-07T02:56:39;100265.84;;;22.64;76.84
71126;BME280;58785;55.566;38.058;2023-08-07T02:59:04;100261.28;;;22.90;76.35
71126;BME280;58785;55.566;38.058;2023-08-07T03:01:31;100266.22;;;23.18;75.59
71126;BME280;58785;55.566;38.058;2023-08-07T03:03:57;100264.09;;;23.38;75.59
71126;BME280;58785;55.566;38.058;2023-08-07T03:06:23;100252.75;;;23.60;75.07
71126;BME280;58785;55.566;38.058;2023-08-07T03:08:55;100264.81;;;23.82;74.01
71126;BME280;58785;55.566;38.058;2023-08-07T03:11:23;100262.28;;;23.99;73.59
71126;BME280;58785;55.566;38.058;2023-08-07T03:13:49;100255.31;;;24.15;72.93
71126;BME280;58785;55.566;38.058;2023-08-07T03:16:15;100254.69;;;24.31;72.37
71126;BME280;58785;55.566;38.058;2023-08-07T03:18:40;100259.25;;;24.49;71.95
71126;BME280;58785;55.566;38.058;2023-08-07T03:21:06;100255.09;;;24.58;71.27
71126;BME280;58785;55.566;38.058;2023-08-07T03:23:32;100262.69;;;24.68;70.99
71126;BME280;58785;55.566;38.058;2023-08-07T03:26:09;100255.69;;;24.83;70.58
71126;BME280;58785;55.566;38.058;2023-08-07T03:28:35;100249.28;;;25.01;70.07
71126;BME280;58785;55.566;38.058;2023-08-07T03:31:02;100251.78;;;25.14;69.62
71126;BME280;58785;55.566;38.058;2023-08-07T03:33:28;100252.63;;;25.27;69.50
71126;BME280;58785;55.566;38.058;2023-08-07T03:35:53;100250.69;;;25.39;69.09
71126;BME280;58785;55.566;38.058;2023-08-07T03:38:19;100245.31;;;25.56;68.63
71126;BME280;58785;55.566;38.058;2023-08-07T03:40:45;100258.66;;;25.69;67.94
71126;BME280;58785;55.566;38.058;2023-08-07T03:43:11;100258.16;;;25.84;67.36
71126;BME280;58785;55.566;38.058;2023-08-07T03:45:37;100250.50;;;25.97;66.92
71126;BME280;58785;55.566;38.058;2023-08-07T03:48:03;100249.59;;;26.08;66.94
71126;BME280;58785;55.566;38.058;2023-08-07T03:50:29;100254.69;;;26.17;66.86
71126;BME280;58785;55.566;38.058;2023-08-07T03:52:56;100254.50;;;26.23;66.35
71126;BME280;58785;55.566;38.058;2023-08-07T03:55:22;100258.16;;;26.29;65.98
71126;BME280;58785;55.566;38.058;2023-08-07T03:57:47;100254.69;;;26.33;65.32
71126;BME280;58785;55.566;38.058;2023-08-07T04:00:13;100255.47;;;26.46;65.18
71126;BME280;58785;55.566;38.058;2023-08-07T04:02:39;100253.38;;;26.53;65.18
71126;BME280;58785;55.566;38.058;2023-08-07T04:05:06;100256.03;;;26.64;64.58
71126;BME280;58785;55.566;38.058;2023-08-07T04:07:31;100255.28;;;26.86;63.88
71126;BME280;58785;55.566;38.058;2023-08-07T04:09:57;100250.78;;;26.97;63.87
71126;BME280;58785;55.566;38.058;2023-08-07T04:15:15;100250.13;;;27.06;63.19
71126;BME280;58785;55.566;38.058;2023-08-07T04:17:40;100249.13;;;27.12;62.92
71126;BME280;58785;55.566;38.058;2023-08-07T04:20:07;100255.97;;;27.15;62.78
71126;BME280;58785;55.566;38.058;2023-08-07T04:22:33;100246.72;;;27.16;62.83
71126;BME280;58785;55.566;38.058;2023-08-07T04:24:59;100256.06;;;27.20;62.52
71126;BME280;58785;55.566;38.058;2023-08-07T04:27:25;100254.53;;;27.29;62.25
71126;BME280;58785;55.566;38.058;2023-08-07T04:29:52;100247.72;;;27.32;61.85
71126;BME280;58785;55.566;38.058;2023-08-07T04:32:18;100250.22;;;27.33;61.88
71126;BME280;58785;55.566;38.058;2023-08-07T04:34:43;100249.75;;;27.41;61.46
71126;BME280;58785;55.566;38.058;2023-08-07T04:37:09;100251.50;;;27.47;61.27
71126;BME280;58785;55.566;38.058;2023-08-07T04:39:35;100245.50;;;27.50;60.92
71126;BME280;58785;55.566;38.058;2023-08-07T04:42:09;100239.00;;;27.57;60.45
71126;BME280;58785;55.566;38.058;2023-08-07T04:44:35;100247.50;;;27.77;60.44
71126;BME280;58785;55.566;38.058;2023-08-07T04:47:01;100244.34;;;27.90;60.28
71126;BME280;58785;55.566;38.058;2023-08-07T04:49:26;100249.63;;;27.97;59.94
71126;BME280;58785;55.566;38.058;2023-08-07T04:51:52;100248.56;;;28.03;59.78
71126;BME280;58785;55.566;38.058;2023-08-07T04:54:18;100243.16;;;28.08;59.39
71126;BME280;58785;55.566;38.058;2023-08-07T04:56:44;100246.16;;;28.06;58.95
71126;BME280;58785;55.566;38.058;2023-08-07T04:59:10;100239.06;;;28.16;58.42
71126;BME280;58785;55.566;38.058;2023-08-07T05:01:36;100240.69;;;28.12;58.45
71126;BME280;58785;55.566;38.058;2023-08-07T05:04:02;100236.03;;;28.12;57.90
71126;BME280;58785;55.566;38.058;2023-08-07T05:06:27;100229.44;;;28.08;57.95
71126;BME280;58785;55.566;38.058;2023-08-07T05:08:53;100230.09;;;28.20;58.08
71126;BME280;58785;55.566;38.058;2023-08-07T05:11:19;100225.28;;;28.32;57.60
71126;BME280;58785;55.566;38.058;2023-08-07T05:13:45;100235.03;;;28.50;57.38
71126;BME280;58785;55.566;38.058;2023-08-07T05:16:11;100227.69;;;28.61;56.90
71126;BME280;58785;55.566;38.058;2023-08-07T05:18:37;100232.69;;;28.69;56.22
71126;BME280;58785;55.566;38.058;2023-08-07T05:21:02;100226.41;;;28.74;56.05
71126;BME280;58785;55.566;38.058;2023-08-07T05:23:28;100229.97;;;28.74;56.08
71126;BME280;58785;55.566;38.058;2023-08-07T05:25:54;100233.59;;;28.80;55.94
71126;BME280;58785;55.566;38.058;2023-08-07T05:28:20;100222.72;;;28.90;56.03
71126;BME280;58785;55.566;38.058;2023-08-07T05:30:45;100223.31;;;29.02;55.68
71126;BME280;58785;55.566;38.058;2023-08-07T05:33:11;100214.03;;;29.13;55.16
71126;BME280;58785;55.566;38.058;2023-08-07T05:35:39;100221.50;;;29.23;54.63
71126;BME280;58785;55.566;38.058;2023-08-07T05:38:05;100227.31;;;29.32;54.50
71126;BME280;58785;55.566;38.058;2023-08-07T05:40:31;100207.53;;;29.30;54.57
71126;BME280;58785;55.566;38.058;2023-08-07T05:42:57;100212.22;;;29.39;53.90
71126;BME280;58785;55.566;38.058;2023-08-07T05:45:23;100208.38;;;29.40;53.97
71126;BME280;58785;55.566;38.058;2023-08-07T05:47:48;100204.63;;;29.57;53.69
71126;BME280;58785;55.566;38.058;2023-08-07T05:50:26;100196.13;;;29.73;53.26
71126;BME280;58785;55.566;38.058;2023-08-07T05:52:54;100202.78;;;29.88;53.15
71126;BME280;58785;55.566;38.058;2023-08-07T05:55:19;100189.28;;;29.91;52.51
71126;BME280;58785;55.566;38.058;2023-08-07T05:57:45;100195.31;;;29.83;52.67
71126;BME280;58785;55.566;38.058;2023-08-07T06:00:11;100193.16;;;29.90;52.31
71126;BME280;58785;55.566;38.058;2023-08-07T06:02:42;100197.28;;;29.98;52.32
71126;BME280;58785;55.566;38.058;2023-08-07T06:05:08;100198.13;;;30.14;52.02
71126;BME280;58785;55.566;38.058;2023-08-07T06:07:35;100201.44;;;30.26;51.83
71126;BME280;58785;55.566;38.058;2023-08-07T06:10:01;100187.94;;;30.24;51.07
71126;BME280;58785;55.566;38.058;2023-08-07T06:12:26;100188.22;;;30.23;50.65
71126;BME280;58785;55.566;38.058;2023-08-07T06:14:52;100188.78;;;30.15;50.39
71126;BME280;58785;55.566;38.058;2023-08-07T06:17:18;100197.59;;;30.17;50.38
71126;BME280;58785;55.566;38.058;2023-08-07T06:19:44;100195.66;;;30.32;49.88
71126;BME280;58785;55.566;38.058;2023-08-07T06:22:09;100191.00;;;30.38;49.92
71126;BME280;58785;55.566;38.058;2023-08-07T06:24:35;100186.84;;;30.41;49.70
71126;BME280;58785;55.566;38.058;2023-08-07T06:27:02;100195.34;;;30.54;48.99
71126;BME280;58785;55.566;38.058;2023-08-07T06:29:30;100195.06;;;30.56;49.00
71126;BME280;58785;55.566;38.058;2023-08-07T06:31:56;100192.34;;;30.51;48.76
71126;BME280;58785;55.566;38.058;2023-08-07T06:34:21;100180.22;;;30.57;49.00
71126;BME280;58785;55.566;38.058;2023-08-07T06:36:47;100180.25;;;30.67;48.85
71126;BME280;58785;55.566;38.058;2023-08-07T06:39:28;100179.13;;;30.78;48.96
71126;BME280;58785;55.566;38.058;2023-08-07T06:42:15;100184.34;;;30.80;48.90
71126;BME280;58785;55.566;38.058;2023-08-07T06:44:41;100179.63;;;30.85;48.33
71126;BME280;58785;55.566;38.058;2023-08-07T06:47:07;100185.94;;;30.91;48.55
71126;BME280;58785;55.566;38.058;2023-08-07T06:49:36;100171.09;;;30.87;48.26
71126;BME280;58785;55.566;38.058;2023-08-07T06:52:02;100168.88;;;30.84;48.09
71126;BME280;58785;55.566;38.058;2023-08-07T06:54:28;100169.13;;;30.98;48.33
71126;BME280;58785;55.566;38.058;2023-08-07T06:56:54;100174.31;;;31.04;47.82
71126;BME280;58785;55.566;38.058;2023-08-07T06:59:23;100160.78;;;31.13;47.79
71126;BME280;58785;55.566;38.058;2023-08-07T07:01:49;100163.59;;;31.03;47.83
71126;BME280;58785;55.566;38.058;2023-08-07T07:04:15;100168.88;;;30.89;47.58
71126;BME280;58785;55.566;38.058;2023-08-07T07:06:40;100154.59;;;30.87;48.25
71126;BME280;58785;55.566;38.058;2023-08-07T07:09:07;100162.56;;;30.88;47.77
71126;BME280;58785;55.566;38.058;2023-08-07T07:11:33;100154.84;;;30.85;47.46
71126;BME280;58785;55.566;38.058;2023-08-07T07:14:00;100161.47;;;30.79;47.55
71126;BME280;58785;55.566;38.058;2023-08-07T07:16:25;100160.13;;;30.77;47.16
71126;BME280;58785;55.566;38.058;2023-08-07T07:18:51;100160.94;;;30.62;46.99
71126;BME280;58785;55.566;38.058;2023-08-07T07:21:18;100160.41;;;30.60;47.75
71126;BME280;58785;55.566;38.058;2023-08-07T07:23:43;100154.34;;;30.53;47.21
71126;BME280;58785;55.566;38.058;2023-08-07T07:26:09;100155.72;;;30.66;47.37
71126;BME280;58785;55.566;38.058;2023-08-07T07:28:35;100152.72;;;30.67;46.92
71126;BME280;58785;55.566;38.058;2023-08-07T07:31:01;100161.50;;;30.64;47.58
71126;BME280;58785;55.566;38.058;2023-08-07T07:33:30;100153.78;;;30.66;47.60
71126;BME280;58785;55.566;38.058;2023-08-07T07:35:56;100155.72;;;30.60;47.13
71126;BME280;58785;55.566;38.058;2023-08-07T07:38:22;100153.53;;;30.68;47.26
71126;BME280;58785;55.566;38.058;2023-08-07T07:40:47;100158.72;;;30.79;46.85
71126;BME280;58785;55.566;38.058;2023-08-07T07:43:13;100148.25;;;30.81;46.91
71126;BME280;58785;55.566;38.058;2023-08-07T07:45:39;100137.19;;;30.86;47.55
71126;BME280;58785;55.566;38.058;2023-08-07T07:48:05;100141.06;;;30.85;47.59
71126;BME280;58785;55.566;38.058;2023-08-07T07:50:33;100139.41;;;30.84;47.18
71126;BME280;58785;55.566;38.058;2023-08-07T07:52:59;100135.31;;;30.82;46.83
71126;BME280;58785;55.566;38.058;2023-08-07T07:55:25;100129.84;;;30.72;47.02
71126;BME280;58785;55.566;38.058;2023-08-07T07:57:51;100133.41;;;30.77;46.76
71126;BME280;58785;55.566;38.058;2023-08-07T08:00:17;100124.31;;;30.77;46.59
71126;BME280;58785;55.566;38.058;2023-08-07T08:02:43;100127.28;;;30.90;46.75
71126;BME280;58785;55.566;38.058;2023-08-07T08:05:09;100125.31;;;30.96;47.07
71126;BME280;58785;55.566;38.058;2023-08-07T08:07:38;100130.56;;;30.98;47.27
71126;BME280;58785;55.566;38.058;2023-08-07T08:10:08;100119.22;;;31.04;47.15
71126;BME280;58785;55.566;38.058;2023-08-07T08:12:35;100116.00;;;30.92;46.23
71126;BME280;58785;55.566;38.058;2023-08-07T08:15:01;100120.44;;;30.83;46.55
71126;BME280;58785;55.566;38.058;2023-08-07T08:17:32;100121.00;;;30.75;46.58
71126;BME280;58785;55.566;38.058;2023-08-07T08:19:58;100116.06;;;30.77;46.74
71126;BME280;58785;55.566;38.058;2023-08-07T08:22:24;100101.72;;;30.80;46.59
71126;BME280;58785;55.566;38.058;2023-08-07T08:24:50;100117.66;;;30.88;46.98
71126;BME280;58785;55.566;38.058;2023-08-07T08:27:16;100111.06;;;30.84;46.82
71126;BME280;58785;55.566;38.058;2023-08-07T08:29:43;100102.25;;;30.82;46.54
71126;BME280;58785;55.566;38.058;2023-08-07T08:32:10;100098.94;;;30.90;46.24
71126;BME280;58785;55.566;38.058;2023-08-07T08:34:40;100097.78;;;30.96;45.58
71126;BME280;58785;55.566;38.058;2023-08-07T08:37:05;100103.84;;;30.93;46.00
71126;BME280;58785;55.566;38.058;2023-08-07T08:39:31;100097.28;;;30.89;45.85
71126;BME280;58785;55.566;38.058;2023-08-07T08:41:59;100100.03;;;30.89;45.92
71126;BME280;58785;55.566;38.058;2023-08-07T08:44:26;100096.78;;;30.77;45.65
71126;BME280;58785;55.566;38.058;2023-08-07T08:46:56;100099.00;;;30.70;46.37
71126;BME280;58785;55.566;38.058;2023-08-07T08:49:30;100105.88;;;30.77;45.73
71126;BME280;58785;55.566;38.058;2023-08-07T08:51:58;100096.75;;;30.82;45.55
71126;BME280;58785;55.566;38.058;2023-08-07T08:54:25;100095.94;;;30.76;45.58
71126;BME280;58785;55.566;38.058;2023-08-07T08:56:52;100097.38;;;30.69;45.90
71126;BME280;58785;55.566;38.058;2023-08-07T08:59:18;100099.00;;;30.59;45.79
71126;BME280;58785;55.566;38.058;2023-08-07T09:01:46;100097.91;;;30.66;46.33
71126;BME280;58785;55.566;38.058;2023-08-07T09:04:13;100090.19;;;30.73;46.39
71126;BME280;58785;55.566;38.058;2023-08-07T09:06:40;100087.44;;;30.73;46.41
71126;BME280;58785;55.566;38.058;2023-08-07T09:09:07;100090.16;;;30.78;46.50
71126;BME280;58785;55.566;38.058;2023-08-07T09:11:34;100079.97;;;30.78;46.95
71126;BME280;58785;55.566;38.058;2023-08-07T09:14:02;100082.44;;;30.80;46.75
71126;BME280;58785;55.566;38.058;2023-08-07T09:16:30;100073.31;;;30.84;46.72
71126;BME280;58785;55.566;38.058;2023-08-07T09:18:56;100067.00;;;30.89;46.98
71126;BME280;58785;55.566;38.058;2023-08-07T09:21:21;100071.38;;;30.90;46.62
71126;BME280;58785;55.566;38.058;2023-08-07T09:23:47;100073.91;;;30.76;46.07
71126;BME280;58785;55.566;38.058;2023-08-07T09:26:13;100072.88;;;30.67;46.66
71126;BME280;58785;55.566;38.058;2023-08-07T09:28:39;100052.75;;;30.56;46.18
71126;BME280;58785;55.566;38.058;2023-08-07T09:31:07;100064.88;;;30.55;46.17
71126;BME280;58785;55.566;38.058;2023-08-07T09:33:34;100059.94;;;30.57;46.20
71126;BME280;58785;55.566;38.058;2023-08-07T09:36:01;100056.13;;;30.48;46.76
71126;BME280;58785;55.566;38.058;2023-08-07T09:38:31;100048.34;;;30.55;46.91
71126;BME280;58785;55.566;38.058;2023-08-07T09:41:02;100042.03;;;30.65;46.77
71126;BME280;58785;55.566;38.058;2023-08-07T09:43:29;100057.19;;;30.68;46.59
71126;BME280;58785;55.566;38.058;2023-08-07T09:46:04;100046.44;;;30.61;46.67
71126;BME280;58785;55.566;38.058;2023-08-07T09:48:30;100041.22;;;30.54;46.43
71126;BME280;58785;55.566;38.058;2023-08-07T09:51:00;100038.22;;;30.51;46.58
71126;BME280;58785;55.566;38.058;2023-08-07T09:53:29;100034.34;;;30.52;46.94
71126;BME280;58785;55.566;38.058;2023-08-07T09:55:55;100033.53;;;30.51;46.85
71126;BME280;58785;55.566;38.058;2023-08-07T09:58:20;100029.13;;;30.45;46.65
71126;BME280;58785;55.566;38.058;2023-08-07T10:00:50;100031.88;;;30.45;46.90
71126;BME280;58785;55.566;38.058;2023-08-07T10:03:19;100023.38;;;30.42;46.40
71126;BME280;58785;55.566;38.058;2023-08-07T10:05:45;100031.63;;;30.47;46.42
71126;BME280;58785;55.566;38.058;2023-08-07T10:08:18;100018.13;;;30.45;47.19
71126;BME280;58785;55.566;38.058;2023-08-07T10:10:46;100021.97;;;30.49;46.82
71126;BME280;58785;55.566;38.058;2023-08-07T10:13:13;100021.13;;;30.54;47.16
71126;BME280;58785;55.566;38.058;2023-08-07T10:15:41;100017.53;;;30.53;47.15
71126;BME280;58785;55.566;38.058;2023-08-07T10:18:09;100018.66;;;30.52;47.74
71126;BME280;58785;55.566;38.058;2023-08-07T10:20:36;100019.19;;;30.54;47.05
71126;BME280;58785;55.566;38.058;2023-08-07T10:23:09;100008.75;;;30.51;46.31
71126;BME280;58785;55.566;38.058;2023-08-07T10:25:41;100009.56;;;30.52;47.29
71126;BME280;58785;55.566;38.058;2023-08-07T10:28:11;100012.03;;;30.58;46.83
71126;BME280;58785;55.566;38.058;2023-08-07T10:30:38;99999.91;;;30.59;46.76
71126;BME280;58785;55.566;38.058;2023-08-07T10:33:05;99993.31;;;30.60;46.95
71126;BME280;58785;55.566;38.058;2023-08-07T10:35:33;99989.97;;;30.63;46.55
71126;BME280;58785;55.566;38.058;2023-08-07T10:38:09;99993.84;;;30.62;46.58
71126;BME280;58785;55.566;38.058;2023-08-07T10:43:24;99984.81;;;30.52;47.22
71126;BME280;58785;55.566;38.058;2023-08-07T10:45:50;99988.66;;;30.51;46.94
71126;BME280;58785;55.566;38.058;2023-08-07T10:48:20;99979.59;;;30.50;47.20
71126;BME280;58785;55.566;38.058;2023-08-07T10:53:31;99979.53;;;30.60;47.69
71126;BME280;58785;55.566;38.058;2023-08-07T10:56:04;99975.44;;;30.53;47.40
71126;BME280;58785;55.566;38.058;2023-08-07T10:58:38;99971.09;;;30.47;47.28
71126;BME280;58785;55.566;38.058;2023-08-07T11:04:00;99959.25;;;30.41;47.29
71126;BME280;58785;55.566;38.058;2023-08-07T11:06:32;99955.41;;;30.42;47.75
71126;BME280;58785;55.566;38.058;2023-08-07T11:08:59;99946.31;;;30.47;47.45
71126;BME280;58785;55.566;38.058;2023-08-07T11:11:29;99964.72;;;30.46;47.57
71126;BME280;58785;55.566;38.058;2023-08-07T11:13:55;99956.22;;;30.48;47.71
71126;BME280;58785;55.566;38.058;2023-08-07T11:16:21;99951.81;;;30.47;47.82
71126;BME280;58785;55.566;38.058;2023-08-07T11:18:48;99950.72;;;30.48;47.28
71126;BME280;58785;55.566;38.058;2023-08-07T11:21:17;99938.84;;;30.52;47.39
71126;BME280;58785;55.566;38.058;2023-08-07T11:23:44;99952.03;;;30.55;47.57
71126;BME280;58785;55.566;38.058;2023-08-07T11:26:12;99939.13;;;30.51;47.87
71126;BME280;58785;55.566;38.058;2023-08-07T11:28:38;99941.88;;;30.51;47.99
71126;BME280;58785;55.566;38.058;2023-08-07T11:31:06;99939.66;;;30.53;48.18
71126;BME280;58785;55.566;38.058;2023-08-07T11:33:35;99938.81;;;30.57;47.52
71126;BME280;58785;55.566;38.058;2023-08-07T11:36:03;99935.78;;;30.54;47.97
71126;BME280;58785;55.566;38.058;2023-08-07T11:38:39;99930.81;;;30.56;47.51
71126;BME280;58785;55.566;38.058;2023-08-07T11:41:07;99932.22;;;30.53;47.31
71126;BME280;58785;55.566;38.058;2023-08-07T11:43:34;99930.28;;;30.54;47.94
71126;BME280;58785;55.566;38.058;2023-08-07T11:46:04;99931.38;;;30.58;48.00
71126;BME280;58785;55.566;38.058;2023-08-07T11:48:36;99911.84;;;30.54;48.12
71126;BME280;58785;55.566;38.058;2023-08-07T11:51:04;99923.38;;;30.56;47.57
71126;BME280;58785;55.566;38.058;2023-08-07T11:53:33;99921.22;;;30.53;48.07
71126;BME280;58785;55.566;38.058;2023-08-07T11:56:08;99925.06;;;30.52;48.27
71126;BME280;58785;55.566;38.058;2023-08-07T11:58:41;99916.56;;;30.49;48.38
71126;BME280;58785;55.566;38.058;2023-08-07T12:01:21;99911.06;;;30.44;47.62
71126;BME280;58785;55.566;38.058;2023-08-07T12:04:10;99911.06;;;30.44;47.59
71126;BME280;58785;55.566;38.058;2023-08-07T12:06:37;99896.78;;;30.42;48.05
71126;BME280;58785;55.566;38.058;2023-08-07T12:09:07;99897.31;;;30.44;48.51
71126;BME280;58785;55.566;38.058;2023-08-07T12:11:38;99893.44;;;30.50;48.68
71126;BME280;58785;55.566;38.058;2023-08-07T12:14:04;99903.34;;;30.51;48.33
71126;BME280;58785;55.566;38.058;2023-08-07T12:16:34;99892.34;;;30.51;47.96
71126;BME280;58785;55.566;38.058;2023-08-07T12:19:01;99887.94;;;30.50;48.46
71126;BME280;58785;55.566;38.058;2023-08-07T12:21:28;99887.66;;;30.51;48.20
71126;BME280;58785;55.566;38.058;2023-08-07T12:23:58;99876.41;;;30.48;48.37
71126;BME280;58785;55.566;38.058;2023-08-07T12:26:25;99883.25;;;30.50;48.71
71126;BME280;58785;55.566;38.058;2023-08-07T12:28:52;99881.84;;;30.53;47.84
71126;BME280;58785;55.566;38.058;2023-08-07T12:31:19;99879.63;;;30.55;48.19
71126;BME280;58785;55.566;38.058;2023-08-07T12:33:45;99871.66;;;30.53;47.85
71126;BME280;58785;55.566;38.058;2023-08-07T12:36:12;99877.16;;;30.53;47.89
71126;BME280;58785;55.566;38.058;2023-08-07T12:38:40;99876.94;;;30.50;47.76
71126;BME280;58785;55.566;38.058;2023-08-07T12:41:07;99869.19;;;30.52;47.73
71126;BME280;58785;55.566;38.058;2023-08-07T12:43:39;99864.56;;;30.47;47.77
71126;BME280;58785;55.566;38.058;2023-08-07T12:46:05;99861.25;;;30.45;48.42
71126;BME280;58785;55.566;38.058;2023-08-07T12:48:31;99870.59;;;30.49;48.69
71126;BME280;58785;55.566;38.058;2023-08-07T12:50:58;99865.34;;;30.53;49.15
71126;BME280;58785;55.566;38.058;2023-08-07T12:53:23;99862.34;;;30.49;48.27
71126;BME280;58785;55.566;38.058;2023-08-07T12:55:49;99853.50;;;30.52;48.06
71126;BME280;58785;55.566;38.058;2023-08-07T12:58:15;99849.94;;;30.52;47.96
71126;BME280;58785;55.566;38.058;2023-08-07T13:00:44;99844.75;;;30.45;48.34